N209 CYTZ-CYKF
Flight info
| Callsign | N209 |
|---|---|
| Flight time | 0h 29m |
| Altitude | 4000 |
| Route | BIMPO DCT MURNO |
| Aircraft | C172/L-SFG/C |
Departure
| Time | 2026-05-07 00:24 |
|---|---|
| Airport | Billy Bishop Toronto City Airport (CYTZ) |
Arrival
| Time | 2026-05-07 00:53 |
|---|---|
| Airport | Region of Waterloo International Airport (CYKF) |
| Time | Latitude | Longitude | Altitude | Speed | Heading |
|---|---|---|---|---|---|
| 2026-05-06 23:58 | 43.62991 | -79.40003 | 252 ft | 0 kts | 324° |
| 2026-05-07 00:13 | 43.62992 | -79.40004 | 252 ft | 1 kts | 317° |
| 2026-05-07 00:13 | 43.62956 | -79.40031 | 252 ft | 11 kts | 191° |
| 2026-05-07 00:13 | 43.62934 | -79.39973 | 254 ft | 10 kts | 71° |
| 2026-05-07 00:14 | 43.62968 | -79.39820 | 255 ft | 23 kts | 81° |
| 2026-05-07 00:14 | 43.63018 | -79.39594 | 255 ft | 27 kts | 71° |
| 2026-05-07 00:14 | 43.63082 | -79.39337 | 255 ft | 28 kts | 70° |
| 2026-05-07 00:14 | 43.63124 | -79.39276 | 255 ft | 6 kts | 342° |
| 2026-05-07 00:15 | 43.63124 | -79.39297 | 255 ft | 0 kts | 142° |
| 2026-05-07 00:16 | 43.63122 | -79.39287 | 255 ft | 8 kts | 88° |
| 2026-05-07 00:16 | 43.63135 | -79.39273 | 255 ft | 0 kts | 235° |
| 2026-05-07 00:20 | 43.63134 | -79.39273 | 255 ft | 3 kts | 233° |
| 2026-05-07 00:21 | 43.63080 | -79.39229 | 260 ft | 14 kts | 73° |
| 2026-05-07 00:21 | 43.63113 | -79.39097 | 258 ft | 19 kts | 70° |
| 2026-05-07 00:21 | 43.63133 | -79.39017 | 256 ft | 0 kts | 72° |
| 2026-05-07 00:22 | 43.63136 | -79.38972 | 255 ft | 16 kts | 111° |
| 2026-05-07 00:22 | 43.63072 | -79.39006 | 256 ft | 11 kts | 250° |
| 2026-05-07 00:23 | 43.63013 | -79.39247 | 260 ft | 51 kts | 251° |
| 2026-05-07 00:23 | 43.62861 | -79.39844 | 328 ft | 74 kts | 250° |
| 2026-05-07 00:23 | 43.62659 | -79.40564 | 470 ft | 84 kts | 248° |
| 2026-05-07 00:23 | 43.62443 | -79.41335 | 686 ft | 85 kts | 249° |
| 2026-05-07 00:24 | 43.62246 | -79.42103 | 925 ft | 85 kts | 253° |
| 2026-05-07 00:24 | 43.62083 | -79.42754 | 981 ft | 88 kts | 251° |
| 2026-05-07 00:24 | 43.61886 | -79.43540 | 1226 ft | 85 kts | 252° |
| 2026-05-07 00:24 | 43.61522 | -79.44174 | 1441 ft | 85 kts | 232° |
| 2026-05-07 00:25 | 43.61073 | -79.44702 | 1651 ft | 86 kts | 215° |
| 2026-05-07 00:25 | 43.60593 | -79.45195 | 1858 ft | 86 kts | 217° |
| 2026-05-07 00:25 | 43.60106 | -79.45688 | 2046 ft | 90 kts | 217° |
| 2026-05-07 00:25 | 43.59550 | -79.46258 | 2060 ft | 108 kts | 218° |
| 2026-05-07 00:26 | 43.58913 | -79.46914 | 2060 ft | 119 kts | 218° |
| 2026-05-07 00:26 | 43.58236 | -79.47612 | 2056 ft | 124 kts | 218° |
| 2026-05-07 00:26 | 43.57437 | -79.47926 | 2011 ft | 119 kts | 184° |
| 2026-05-07 00:26 | 43.56658 | -79.48174 | 1949 ft | 113 kts | 207° |
| 2026-05-07 00:27 | 43.56070 | -79.48831 | 1946 ft | 106 kts | 223° |
| 2026-05-07 00:27 | 43.55545 | -79.49505 | 1940 ft | 103 kts | 225° |
| 2026-05-07 00:27 | 43.55038 | -79.50186 | 1939 ft | 101 kts | 226° |
| 2026-05-07 00:27 | 43.54531 | -79.50879 | 1947 ft | 105 kts | 226° |
| 2026-05-07 00:28 | 43.53994 | -79.51568 | 1950 ft | 106 kts | 225° |
| 2026-05-07 00:28 | 43.53460 | -79.52281 | 1952 ft | 107 kts | 225° |
| 2026-05-07 00:28 | 43.52923 | -79.52994 | 1953 ft | 107 kts | 225° |
| 2026-05-07 00:28 | 43.52383 | -79.53708 | 1953 ft | 108 kts | 225° |
| 2026-05-07 00:29 | 43.51843 | -79.54421 | 1953 ft | 108 kts | 225° |
| 2026-05-07 00:29 | 43.51303 | -79.55133 | 1952 ft | 108 kts | 225° |
| 2026-05-07 00:30 | 43.49675 | -79.57276 | 1953 ft | 108 kts | 225° |
| 2026-05-07 00:30 | 43.49133 | -79.57989 | 1952 ft | 108 kts | 225° |
| 2026-05-07 00:30 | 43.48591 | -79.58703 | 1952 ft | 108 kts | 225° |
| 2026-05-07 00:30 | 43.48050 | -79.59415 | 1951 ft | 108 kts | 225° |
| 2026-05-07 00:31 | 43.47507 | -79.60129 | 1952 ft | 108 kts | 225° |
| 2026-05-07 00:31 | 43.46964 | -79.60842 | 1952 ft | 108 kts | 225° |
| 2026-05-07 00:31 | 43.46419 | -79.61557 | 1952 ft | 108 kts | 225° |
| 2026-05-07 00:31 | 43.45875 | -79.62272 | 1951 ft | 108 kts | 225° |
| 2026-05-07 00:32 | 43.45637 | -79.63025 | 1955 ft | 93 kts | 271° |
| 2026-05-07 00:32 | 43.45593 | -79.63843 | 1928 ft | 80 kts | 265° |
| 2026-05-07 00:32 | 43.45547 | -79.64557 | 1919 ft | 70 kts | 264° |
| 2026-05-07 00:32 | 43.45497 | -79.65212 | 1922 ft | 74 kts | 263° |
| 2026-05-07 00:33 | 43.45447 | -79.65972 | 1990 ft | 87 kts | 264° |
| 2026-05-07 00:33 | 43.45382 | -79.66859 | 2069 ft | 101 kts | 265° |
| 2026-05-07 00:33 | 43.45307 | -79.67867 | 2059 ft | 109 kts | 265° |
| 2026-05-07 00:33 | 43.45226 | -79.68929 | 2058 ft | 113 kts | 265° |
| 2026-05-07 00:34 | 43.45142 | -79.70018 | 2058 ft | 115 kts | 265° |
| 2026-05-07 00:34 | 43.45056 | -79.71118 | 2057 ft | 116 kts | 265° |
| 2026-05-07 00:34 | 43.44970 | -79.72224 | 2057 ft | 116 kts | 265° |
| 2026-05-07 00:34 | 43.44884 | -79.73326 | 2051 ft | 113 kts | 265° |
| 2026-05-07 00:35 | 43.44803 | -79.74371 | 2040 ft | 107 kts | 264° |
| 2026-05-07 00:35 | 43.44723 | -79.75375 | 2039 ft | 104 kts | 264° |
| 2026-05-07 00:35 | 43.44647 | -79.76350 | 2041 ft | 102 kts | 264° |
| 2026-05-07 00:35 | 43.44572 | -79.77307 | 2038 ft | 100 kts | 264° |
| 2026-05-07 00:36 | 43.44497 | -79.78256 | 2040 ft | 99 kts | 264° |
| 2026-05-07 00:36 | 43.44423 | -79.79200 | 2038 ft | 99 kts | 264° |
| 2026-05-07 00:36 | 43.44349 | -79.80132 | 2040 ft | 99 kts | 265° |
| 2026-05-07 00:36 | 43.44275 | -79.81074 | 2039 ft | 99 kts | 265° |
| 2026-05-07 00:37 | 43.44200 | -79.82016 | 2040 ft | 99 kts | 264° |
| 2026-05-07 00:37 | 43.44126 | -79.82959 | 2039 ft | 99 kts | 264° |
| 2026-05-07 00:37 | 43.44052 | -79.83902 | 2039 ft | 99 kts | 264° |
| 2026-05-07 00:37 | 43.43978 | -79.84845 | 2038 ft | 99 kts | 264° |
| 2026-05-07 00:38 | 43.43903 | -79.85784 | 2037 ft | 99 kts | 265° |
| 2026-05-07 00:38 | 43.43828 | -79.86721 | 2038 ft | 99 kts | 264° |
| 2026-05-07 00:38 | 43.43754 | -79.87657 | 2040 ft | 98 kts | 264° |
| 2026-05-07 00:38 | 43.43680 | -79.88593 | 2039 ft | 98 kts | 264° |
| 2026-05-07 00:39 | 43.43606 | -79.89528 | 2039 ft | 98 kts | 264° |
| 2026-05-07 00:39 | 43.43531 | -79.90462 | 2039 ft | 98 kts | 264° |
| 2026-05-07 00:39 | 43.43457 | -79.91397 | 2039 ft | 99 kts | 264° |
| 2026-05-07 00:39 | 43.43382 | -79.92334 | 2038 ft | 99 kts | 264° |
| 2026-05-07 00:40 | 43.43307 | -79.93269 | 2040 ft | 98 kts | 264° |
| 2026-05-07 00:40 | 43.43232 | -79.94206 | 2041 ft | 99 kts | 264° |
| 2026-05-07 00:40 | 43.43155 | -79.95162 | 2046 ft | 102 kts | 264° |
| 2026-05-07 00:40 | 43.43077 | -79.96139 | 2050 ft | 103 kts | 264° |
| 2026-05-07 00:41 | 43.42998 | -79.97124 | 2052 ft | 104 kts | 264° |
| 2026-05-07 00:41 | 43.42919 | -79.98114 | 2053 ft | 104 kts | 264° |
| 2026-05-07 00:41 | 43.42839 | -79.99108 | 2054 ft | 105 kts | 264° |
| 2026-05-07 00:41 | 43.42759 | -80.00104 | 2054 ft | 105 kts | 264° |
| 2026-05-07 00:42 | 43.42678 | -80.01102 | 2054 ft | 105 kts | 264° |
| 2026-05-07 00:42 | 43.42598 | -80.02100 | 2053 ft | 105 kts | 264° |
| 2026-05-07 00:42 | 43.42517 | -80.03099 | 2054 ft | 105 kts | 264° |
| 2026-05-07 00:42 | 43.42436 | -80.04100 | 2054 ft | 105 kts | 264° |
| 2026-05-07 00:43 | 43.42355 | -80.05103 | 2055 ft | 106 kts | 264° |
| 2026-05-07 00:43 | 43.42274 | -80.06107 | 2054 ft | 106 kts | 264° |
| 2026-05-07 00:43 | 43.42194 | -80.07096 | 2053 ft | 105 kts | 264° |
| 2026-05-07 00:43 | 43.42112 | -80.08097 | 2054 ft | 105 kts | 264° |
| 2026-05-07 00:44 | 43.42030 | -80.09114 | 2054 ft | 106 kts | 264° |
| 2026-05-07 00:44 | 43.41948 | -80.10115 | 2053 ft | 105 kts | 264° |
| 2026-05-07 00:44 | 43.41866 | -80.11116 | 2053 ft | 105 kts | 264° |
| 2026-05-07 00:44 | 43.41784 | -80.12117 | 2053 ft | 106 kts | 264° |
| 2026-05-07 00:45 | 43.41703 | -80.13121 | 2054 ft | 106 kts | 264° |
| 2026-05-07 00:45 | 43.41622 | -80.14112 | 2052 ft | 106 kts | 264° |
| 2026-05-07 00:45 | 43.41540 | -80.15115 | 2052 ft | 105 kts | 264° |
| 2026-05-07 00:45 | 43.41457 | -80.16118 | 2051 ft | 105 kts | 264° |
| 2026-05-07 00:46 | 43.41375 | -80.17119 | 2052 ft | 106 kts | 264° |
| 2026-05-07 00:46 | 43.41293 | -80.18123 | 2052 ft | 106 kts | 264° |
| 2026-05-07 00:46 | 43.41211 | -80.19127 | 2052 ft | 106 kts | 264° |
| 2026-05-07 00:46 | 43.41128 | -80.20130 | 2052 ft | 106 kts | 264° |
| 2026-05-07 00:47 | 43.41046 | -80.21132 | 2052 ft | 105 kts | 264° |
| 2026-05-07 00:47 | 43.40962 | -80.22133 | 2052 ft | 105 kts | 264° |
| 2026-05-07 00:47 | 43.40880 | -80.23134 | 2051 ft | 105 kts | 264° |
| 2026-05-07 00:47 | 43.40804 | -80.24068 | 2037 ft | 92 kts | 264° |
| 2026-05-07 00:48 | 43.40736 | -80.24894 | 2035 ft | 82 kts | 264° |
| 2026-05-07 00:48 | 43.40667 | -80.25683 | 2050 ft | 86 kts | 265° |
| 2026-05-07 00:48 | 43.40597 | -80.26534 | 2057 ft | 93 kts | 264° |
| 2026-05-07 00:48 | 43.40523 | -80.27440 | 2058 ft | 97 kts | 264° |
| 2026-05-07 00:49 | 43.40446 | -80.28368 | 2057 ft | 98 kts | 264° |
| 2026-05-07 00:49 | 43.40566 | -80.29253 | 2052 ft | 95 kts | 304° |
| 2026-05-07 00:49 | 43.40970 | -80.29961 | 2051 ft | 93 kts | 307° |
| 2026-05-07 00:49 | 43.41363 | -80.30645 | 2040 ft | 89 kts | 308° |
| 2026-05-07 00:50 | 43.41731 | -80.31286 | 2035 ft | 82 kts | 308° |
| 2026-05-07 00:50 | 43.42074 | -80.31883 | 2038 ft | 77 kts | 308° |
| 2026-05-07 00:50 | 43.42407 | -80.32466 | 2013 ft | 80 kts | 309° |
| 2026-05-07 00:50 | 43.42760 | -80.33079 | 1957 ft | 84 kts | 308° |
| 2026-05-07 00:51 | 43.43006 | -80.33503 | 1878 ft | 86 kts | 308° |
| 2026-05-07 00:51 | 43.43369 | -80.34135 | 1766 ft | 81 kts | 308° |
| 2026-05-07 00:51 | 43.43680 | -80.34683 | 1663 ft | 69 kts | 308° |
| 2026-05-07 00:51 | 43.43970 | -80.35196 | 1564 ft | 68 kts | 307° |
| 2026-05-07 00:52 | 43.44263 | -80.35706 | 1469 ft | 68 kts | 309° |
| 2026-05-07 00:52 | 43.44555 | -80.36212 | 1377 ft | 66 kts | 308° |
| 2026-05-07 00:52 | 43.44833 | -80.36700 | 1289 ft | 64 kts | 308° |
| 2026-05-07 00:52 | 43.45109 | -80.37181 | 1208 ft | 64 kts | 308° |
| 2026-05-07 00:53 | 43.45386 | -80.37665 | 1123 ft | 65 kts | 309° |
| 2026-05-07 00:53 | 43.45666 | -80.38147 | 1040 ft | 64 kts | 308° |
| 2026-05-07 00:53 | 43.45889 | -80.38536 | 1032 ft | 36 kts | 308° |
| 2026-05-07 00:53 | 43.45897 | -80.38687 | 1032 ft | 15 kts | 236° |
| 2026-05-07 00:54 | 43.45857 | -80.38795 | 1033 ft | 12 kts | 243° |
| 2026-05-07 00:54 | 43.45805 | -80.38923 | 1033 ft | 15 kts | 214° |
| 2026-05-07 00:54 | 43.45701 | -80.38898 | 1031 ft | 17 kts | 154° |
| 2026-05-07 00:54 | 43.45591 | -80.38829 | 1030 ft | 18 kts | 157° |
| 2026-05-07 00:55 | 43.45593 | -80.38794 | 1030 ft | 0 kts | 329° |